Time;durP1;ratioP1;P1;durP2;ratioP2;P2;SDS_P1;SDS_P2;PMS_P1;PMS_P2;Temp;Humidity;BMP_temperature;BMP_pressure;BME280_temperature;BME280_humidity;BME280_pressure;Samples;Min_cycle;Max_cycle;Signal;HPM_P1;HPM_P2
2023/09/11 00:00:48;;;;;;;;;;;24.10;72.30;;;;;;5112518;28;20013;-67
2023/09/11 00:03:14;;;;;;;;;;;24.00;72.20;;;;;;5094308;28;19927;-67
2023/09/11 00:05:39;;;;;;;;;;;24.00;72.20;;;;;;5094514;28;20321;-67
2023/09/11 00:08:05;;;;;;;;;;;24.10;72.30;;;;;;5112601;28;20014;-67
2023/09/11 00:10:32;;;;;;;;;;;24.00;72.20;;;;;;5094511;28;19979;-67
2023/09/11 00:12:58;;;;;;;;;;;24.00;72.20;;;;;;5112441;28;20465;-67
2023/09/11 00:15:24;;;;;;;;;;;24.00;72.20;;;;;;5094366;28;20271;-67
2023/09/11 00:17:50;;;;;;;;;;;24.00;72.20;;;;;;5094540;28;19926;-67
2023/09/11 00:20:15;;;;;;;;;;;24.00;72.20;;;;;;5094187;28;20277;-67
2023/09/11 00:22:41;;;;;;;;;;;24.00;72.20;;;;;;5094466;28;19926;-67
2023/09/11 00:25:07;;;;;;;;;;;24.00;72.20;;;;;;5112333;28;19942;-67
2023/09/11 00:27:32;;;;;;;;;;;24.00;72.20;;;;;;5112328;28;19927;-67
2023/09/11 00:29:58;;;;;;;;;;;24.00;72.50;;;;;;5112289;28;20386;-67
2023/09/11 00:32:23;;;;;;;;;;;24.00;72.20;;;;;;5112482;28;19916;-67
2023/09/11 00:34:49;;;;;;;;;;;23.90;72.20;;;;;;5112087;28;19934;-67
2023/09/11 00:37:14;;;;;;;;;;;24.00;72.20;;;;;;5094026;28;19969;-67
2023/09/11 00:39:40;;;;;;;;;;;24.00;72.20;;;;;;5112286;28;20007;-67
2023/09/11 00:42:05;;;;;;;;;;;24.00;72.20;;;;;;5112210;28;20014;-67
2023/09/11 00:44:31;;;;;;;;;;;24.00;72.20;;;;;;5097185;28;19920;-67
2023/09/11 00:46:57;;;;;;;;;;;24.00;72.20;;;;;;5097778;28;19919;-67
2023/09/11 00:49:23;;;;;;;;;;;24.00;72.30;;;;;;5097483;28;20279;-67
2023/09/11 00:51:50;;;;;;;;;;;24.00;72.20;;;;;;5097801;28;19923;-68
2023/09/11 00:54:18;;;;;;;;;;;24.00;72.20;;;;;;5097716;28;19920;-67
2023/09/11 00:56:45;;;;;;;;;;;24.00;72.20;;;;;;5097351;28;19923;-67
2023/09/11 00:59:11;;;;;;;;;;;24.00;72.20;;;;;;5115528;28;20014;-67
2023/09/11 01:01:37;;;;;;;;;;;24.00;72.20;;;;;;5097611;28;19920;-66
2023/09/11 01:04:02;;;;;;;;;;;24.00;72.20;;;;;;5115822;28;19920;-67
2023/09/11 01:06:28;;;;;;;;;;;24.00;72.20;;;;;;5097441;28;19959;-67
2023/09/11 01:08:55;;;;;;;;;;;24.00;72.20;;;;;;5115606;28;19924;-67
2023/09/11 01:11:21;;;;;;;;;;;23.90;72.20;;;;;;5097146;28;19920;-67
2023/09/11 01:13:46;;;;;;;;;;;23.90;72.20;;;;;;5097316;28;19927;-67
2023/09/11 01:19:16;;;;;;;;;;;24.00;72.20;;;;;;5110373;27;19917;-67
2023/09/11 01:22:01;;;;;;;;;;;23.90;72.20;;;;;;5108799;28;20269;-67
2023/09/11 01:24:32;;;;;;;;;;;24.00;72.20;;;;;;5108926;28;19920;-67
2023/09/11 01:27:17;;;;;;;;;;;23.90;72.20;;;;;;5108819;28;20023;-67
2023/09/11 01:29:44;;;;;;;;;;;23.90;72.10;;;;;;5109861;28;20264;-67
2023/09/11 01:32:10;;;;;;;;;;;23.90;72.10;;;;;;5110029;28;19951;-67
2023/09/11 01:34:36;;;;;;;;;;;23.90;72.20;;;;;;5110009;28;19920;-67
2023/09/11 01:37:01;;;;;;;;;;;24.00;72.20;;;;;;5109851;28;19950;-67
2023/09/11 01:39:27;;;;;;;;;;;23.90;72.10;;;;;;5109839;28;20007;-67
2023/09/11 01:41:54;;;;;;;;;;;23.90;72.90;;;;;;5110240;28;19920;-67
2023/09/11 01:44:22;;;;;;;;;;;23.90;72.10;;;;;;5109807;28;20445;-68
2023/09/11 01:46:48;;;;;;;;;;;23.90;72.10;;;;;;5108775;28;19949;-68
2023/09/11 01:49:16;;;;;;;;;;;23.90;72.10;;;;;;5108416;28;20007;-67
2023/09/11 01:51:41;;;;;;;;;;;23.90;72.10;;;;;;5108345;28;20003;-67
2023/09/11 01:54:08;;;;;;;;;;;23.80;72.00;;;;;;5108648;28;20011;-67
2023/09/11 01:56:33;;;;;;;;;;;23.90;72.90;;;;;;5108320;28;20276;-67
2023/09/11 01:58:59;;;;;;;;;;;23.90;72.10;;;;;;5109598;28;19942;-67
2023/09/11 02:01:24;;;;;;;;;;;23.90;72.10;;;;;;5108500;28;20294;-67
2023/09/11 02:03:50;;;;;;;;;;;23.90;72.10;;;;;;5108044;28;19920;-67
2023/09/11 02:06:15;;;;;;;;;;;23.90;72.10;;;;;;5108491;28;19927;-67
2023/09/11 02:08:41;;;;;;;;;;;23.90;72.10;;;;;;5108099;28;20474;-67
2023/09/11 02:11:07;;;;;;;;;;;23.90;72.10;;;;;;5109375;28;19927;-67
2023/09/11 02:13:33;;;;;;;;;;;23.90;72.10;;;;;;5108268;28;19924;-67
2023/09/11 02:15:59;;;;;;;;;;;23.90;72.10;;;;;;5107984;28;20294;-67
2023/09/11 02:18:24;;;;;;;;;;;23.80;72.00;;;;;;5125301;28;19978;-67
2023/09/11 02:20:50;;;;;;;;;;;23.90;72.00;;;;;;5145501;27;19927;-67
2023/09/11 02:23:16;;;;;;;;;;;23.90;72.10;;;;;;5111390;28;19920;-67
2023/09/11 02:25:41;;;;;;;;;;;23.90;72.00;;;;;;5111053;28;19919;-67
2023/09/11 02:28:07;;;;;;;;;;;23.80;72.00;;;;;;5128237;28;20174;-67
2023/09/11 02:30:32;;;;;;;;;;;23.80;72.00;;;;;;5131472;27;19920;-67
2023/09/11 02:32:58;;;;;;;;;;;23.80;72.00;;;;;;5115659;28;20031;-67
2023/09/11 02:35:23;;;;;;;;;;;23.80;72.00;;;;;;5115524;28;20397;-67
2023/09/11 02:37:49;;;;;;;;;;;23.80;72.00;;;;;;5115502;28;20128;-67
2023/09/11 02:40:14;;;;;;;;;;;23.80;72.00;;;;;;5115491;28;20382;-66
2023/09/11 02:42:40;;;;;;;;;;;23.80;72.00;;;;;;5097280;28;19926;-67
2023/09/11 02:45:06;;;;;;;;;;;23.80;72.00;;;;;;5115317;28;19934;-67
2023/09/11 02:47:31;;;;;;;;;;;23.80;72.00;;;;;;5131290;27;19924;-67
2023/09/11 02:49:56;;;;;;;;;;;23.90;72.00;;;;;;5115334;28;20043;-67
2023/09/11 02:52:22;;;;;;;;;;;23.90;72.00;;;;;;5097377;28;20310;-67
2023/09/11 02:54:47;;;;;;;;;;;23.80;72.00;;;;;;5096232;28;19935;-67
2023/09/11 02:57:13;;;;;;;;;;;23.80;72.00;;;;;;5097071;28;19930;-67
2023/09/11 02:59:38;;;;;;;;;;;23.80;72.00;;;;;;5097197;28;20344;-67
2023/09/11 03:02:05;;;;;;;;;;;23.80;72.00;;;;;;5096691;28;19920;-67
2023/09/11 03:04:30;;;;;;;;;;;23.80;71.90;;;;;;5097126;28;20381;-67
2023/09/11 03:06:56;;;;;;;;;;;23.80;72.00;;;;;;5131167;27;19920;-67
2023/09/11 03:09:22;;;;;;;;;;;23.80;72.00;;;;;;5096643;28;19927;-67
2023/09/11 03:11:47;;;;;;;;;;;23.80;71.90;;;;;;5114901;28;19920;-67
2023/09/11 03:14:13;;;;;;;;;;;23.80;71.90;;;;;;5131118;27;19920;-67
2023/09/11 03:16:43;;;;;;;;;;;23.80;72.00;;;;;;5130815;27;20362;-67
2023/09/11 03:19:09;;;;;;;;;;;23.80;71.90;;;;;;5130978;27;19946;-67
2023/09/11 03:21:34;;;;;;;;;;;23.80;71.90;;;;;;5114648;28;19965;-67
2023/09/11 03:24:00;;;;;;;;;;;23.80;71.90;;;;;;5096644;28;20388;-67
2023/09/11 03:26:25;;;;;;;;;;;23.80;71.90;;;;;;5123924;27;19924;-67
2023/09/11 03:28:51;;;;;;;;;;;23.80;71.90;;;;;;5109746;28;20302;-67
2023/09/11 03:31:17;;;;;;;;;;;23.80;71.90;;;;;;5110171;28;20065;-66
2023/09/11 03:33:42;;;;;;;;;;;23.80;71.90;;;;;;5076147;28;19967;-67
2023/09/11 03:36:08;;;;;;;;;;;23.80;71.90;;;;;;5094142;28;19924;-67
2023/09/11 03:38:33;;;;;;;;;;;23.80;71.90;;;;;;5075856;28;19924;-67
2023/09/11 03:40:59;;;;;;;;;;;23.80;71.90;;;;;;5092810;28;19920;-66
2023/09/11 03:43:24;;;;;;;;;;;23.70;71.80;;;;;;5076003;28;19951;-67
2023/09/11 03:45:50;;;;;;;;;;;23.80;71.80;;;;;;5093794;28;19971;-67
2023/09/11 03:48:15;;;;;;;;;;;23.70;71.80;;;;;;5093791;28;19928;-67
2023/09/11 03:50:41;;;;;;;;;;;23.80;71.80;;;;;;5093755;28;19974;-67
2023/09/11 03:53:06;;;;;;;;;;;23.70;71.80;;;;;;5109715;28;19927;-67
2023/09/11 03:55:32;;;;;;;;;;;23.70;71.80;;;;;;5109693;28;19920;-67
2023/09/11 03:57:57;;;;;;;;;;;23.70;71.80;;;;;;5093522;28;19928;-67
2023/09/11 04:00:23;;;;;;;;;;;23.70;71.80;;;;;;5093859;28;19920;-67
2023/09/11 04:02:48;;;;;;;;;;;23.70;71.80;;;;;;5083218;28;19959;-67
2023/09/11 04:05:14;;;;;;;;;;;23.70;71.80;;;;;;5114043;28;19974;-67
2023/09/11 04:07:39;;;;;;;;;;;23.70;72.50;;;;;;5130223;27;19919;-67
2023/09/11 04:10:05;;;;;;;;;;;23.70;71.80;;;;;;5095590;28;20416;-68
2023/09/11 04:12:31;;;;;;;;;;;23.70;71.80;;;;;;5129792;27;19968;-67
2023/09/11 04:14:56;;;;;;;;;;;23.60;71.70;;;;;;5130030;27;20469;-67
2023/09/11 04:17:22;;;;;;;;;;;23.70;71.80;;;;;;5095095;28;19924;-67
2023/09/11 04:19:47;;;;;;;;;;;23.70;71.80;;;;;;5129451;27;19931;-67
2023/09/11 04:22:13;;;;;;;;;;;23.70;71.80;;;;;;5111100;27;19972;-67
2023/09/11 04:24:38;;;;;;;;;;;23.70;71.80;;;;;;5075204;28;20359;-67
2023/09/11 04:27:06;;;;;;;;;;;23.70;71.80;;;;;;5093133;28;20375;-67
2023/09/11 04:29:32;;;;;;;;;;;23.70;71.80;;;;;;5109110;28;19947;-67
2023/09/11 04:31:57;;;;;;;;;;;23.70;71.80;;;;;;5075216;28;20359;-67
2023/09/11 04:34:23;;;;;;;;;;;23.70;71.70;;;;;;5108812;28;19920;-67
2023/09/11 04:36:49;;;;;;;;;;;23.70;71.80;;;;;;5092995;28;19973;-67
2023/09/11 04:39:14;;;;;;;;;;;23.60;71.70;;;;;;5108586;28;20375;-67
2023/09/11 04:41:40;;;;;;;;;;;23.70;71.80;;;;;;5108984;28;19920;-67
2023/09/11 04:44:05;;;;;;;;;;;23.70;71.80;;;;;;5074639;28;20387;-67
2023/09/11 04:46:31;;;;;;;;;;;23.60;71.70;;;;;;5093034;28;19920;-67
2023/09/11 04:48:57;;;;;;;;;;;23.60;71.70;;;;;;5074610;28;20318;-66
2023/09/11 04:51:22;;;;;;;;;;;23.60;71.70;;;;;;5092586;28;20298;-67
2023/09/11 04:53:48;;;;;;;;;;;23.60;71.70;;;;;;5074878;28;19931;-68
2023/09/11 04:56:14;;;;;;;;;;;23.60;71.70;;;;;;5074883;28;19955;-67
2023/09/11 04:58:39;;;;;;;;;;;23.60;71.70;;;;;;5108208;28;19969;-67
2023/09/11 05:01:05;;;;;;;;;;;23.60;71.70;;;;;;5074743;28;19920;-67
2023/09/11 05:03:30;;;;;;;;;;;23.60;71.70;;;;;;5122198;27;19920;-67
2023/09/11 05:05:56;;;;;;;;;;;23.60;71.70;;;;;;5094957;28;19920;-67
2023/09/11 05:08:21;;;;;;;;;;;23.60;71.70;;;;;;5128819;27;20202;-67
2023/09/11 05:10:47;;;;;;;;;;;23.60;71.70;;;;;;5128643;27;19919;-67
2023/09/11 05:13:12;;;;;;;;;;;23.60;71.70;;;;;;5112791;28;20006;-67
2023/09/11 05:15:38;;;;;;;;;;;23.60;71.70;;;;;;5113010;28;20420;-67
2023/09/11 05:18:04;;;;;;;;;;;23.60;71.70;;;;;;5094346;28;19954;-68
2023/09/11 05:20:30;;;;;;;;;;;23.60;71.70;;;;;;5094442;28;20021;-67
2023/09/11 05:22:56;;;;;;;;;;;23.60;71.70;;;;;;5094756;28;19920;-67
2023/09/11 05:25:21;;;;;;;;;;;23.60;71.70;;;;;;5112643;28;20018;-67
2023/09/11 05:27:47;;;;;;;;;;;23.60;71.70;;;;;;5094702;28;19922;-67
2023/09/11 05:30:13;;;;;;;;;;;23.50;71.60;;;;;;5094637;28;20314;-67
2023/09/11 05:32:39;;;;;;;;;;;23.50;71.60;;;;;;5129031;28;19945;-67
2023/09/11 05:35:05;;;;;;;;;;;23.60;71.70;;;;;;5093495;28;19920;-68
2023/09/11 05:37:31;;;;;;;;;;;23.50;71.60;;;;;;5093682;28;19968;-68
2023/09/11 05:39:56;;;;;;;;;;;23.50;72.40;;;;;;5112409;28;19924;-68
2023/09/11 05:42:22;;;;;;;;;;;23.50;71.60;;;;;;5094187;28;19920;-68
2023/09/11 05:44:48;;;;;;;;;;;23.40;71.60;;;;;;5091512;28;19942;-67
2023/09/11 05:47:14;;;;;;;;;;;23.50;71.60;;;;;;5088311;28;20371;-68
2023/09/11 05:49:39;;;;;;;;;;;23.50;71.70;;;;;;5088489;28;19920;-67
2023/09/11 05:52:05;;;;;;;;;;;23.50;71.80;;;;;;5087274;28;19920;-68
2023/09/11 05:54:31;;;;;;;;;;;23.40;71.80;;;;;;5086145;28;20402;-69
2023/09/11 05:56:56;;;;;;;;;;;23.40;71.90;;;;;;5088240;28;19940;-69
2023/09/11 05:59:22;;;;;;;;;;;23.40;72.00;;;;;;5075354;28;20169;-72
2023/09/11 06:01:47;;;;;;;;;;;23.40;72.10;;;;;;5065087;28;19946;-68
2023/09/11 06:04:13;;;;;;;;;;;23.40;72.20;;;;;;5116602;27;19947;-68
2023/09/11 06:06:38;;;;;;;;;;;23.30;72.20;;;;;;5082464;28;19937;-73
2023/09/11 06:09:08;;;;;;;;;;;23.30;72.30;;;;;;5085264;27;19924;-71
2023/09/11 06:11:34;;;;;;;;;;;23.40;73.20;;;;;;5087850;28;19916;-68
2023/09/11 06:14:00;;;;;;;;;;;23.40;72.50;;;;;;5118398;27;19925;-68
2023/09/11 06:16:25;;;;;;;;;;;23.40;72.50;;;;;;5095897;28;19920;-70
2023/09/11 06:18:51;;;;;;;;;;;23.40;72.50;;;;;;5093000;28;19920;-70
2023/09/11 06:21:17;;;;;;;;;;;23.40;72.50;;;;;;5093492;28;19969;-69
2023/09/11 06:23:43;;;;;;;;;;;23.40;72.60;;;;;;5094187;28;20294;-69
2023/09/11 06:26:09;;;;;;;;;;;23.50;72.70;;;;;;5079439;28;19924;-68
2023/09/11 06:28:37;;;;;;;;;;;23.50;72.70;;;;;;5075135;28;19928;-69
2023/09/11 06:31:03;;;;;;;;;;;23.40;72.60;;;;;;5074872;28;20015;-68
2023/09/11 06:33:29;;;;;;;;;;;23.40;72.90;;;;;;5100350;28;20392;-67
2023/09/11 06:35:54;;;;;;;;;;;23.40;73.00;;;;;;5100080;28;20022;-67
2023/09/11 06:38:21;;;;;;;;;;;23.30;73.20;;;;;;5080773;28;20321;-67
2023/09/11 06:40:46;;;;;;;;;;;23.40;73.50;;;;;;5089167;28;19920;-70
2023/09/11 06:43:12;;;;;;;;;;;23.30;73.50;;;;;;5100292;28;19931;-68
2023/09/11 06:45:38;;;;;;;;;;;23.30;73.80;;;;;;5093853;28;19924;-67
2023/09/11 06:48:04;;;;;;;;;;;23.30;73.50;;;;;;5076260;28;19923;-68
2023/09/11 06:50:30;;;;;;;;;;;23.30;74.10;;;;;;5096462;28;19920;-67
2023/09/11 06:52:55;;;;;;;;;;;23.30;74.40;;;;;;5078516;28;20095;-69
2023/09/11 06:55:21;;;;;;;;;;;23.30;75.00;;;;;;5073058;28;19934;-69
2023/09/11 06:57:55;;;;;;;;;;;23.20;75.20;;;;;;5072048;28;19935;-68
2023/09/11 07:00:20;;;;;;;;;;;23.30;74.80;;;;;;5076282;28;19923;-68
2023/09/11 07:02:47;;;;;;;;;;;23.30;75.20;;;;;;5074621;28;19928;-70
2023/09/11 07:05:13;;;;;;;;;;;23.30;74.90;;;;;;5074845;28;19977;-68
2023/09/11 07:07:38;;;;;;;;;;;23.30;75.00;;;;;;5074166;27;20294;-68
2023/09/11 07:10:04;;;;;;;;;;;23.30;75.00;;;;;;5105608;27;19931;-67
2023/09/11 07:12:29;;;;;;;;;;;23.30;75.00;;;;;;5102668;27;19931;-67
2023/09/11 07:14:55;;;;;;;;;;;23.30;76.00;;;;;;5088745;27;19923;-66
2023/09/11 07:17:20;;;;;;;;;;;23.40;75.30;;;;;;5073238;28;20520;-66
2023/09/11 07:19:46;;;;;;;;;;;23.40;75.40;;;;;;5080498;28;19952;-66
2023/09/11 07:22:12;;;;;;;;;;;23.50;75.40;;;;;;5079115;28;19920;-66
2023/09/11 07:24:38;;;;;;;;;;;23.40;75.70;;;;;;5078005;28;19939;-67
2023/09/11 07:27:04;;;;;;;;;;;23.50;75.50;;;;;;5091479;28;20391;-67
2023/09/11 07:29:30;;;;;;;;;;;23.50;75.70;;;;;;5076329;28;19920;-68
2023/09/11 07:31:55;;;;;;;;;;;23.50;76.20;;;;;;5083654;28;19920;-70
2023/09/11 07:34:21;;;;;;;;;;;23.50;76.10;;;;;;5079433;28;20294;-68
2023/09/11 07:36:46;;;;;;;;;;;23.50;76.40;;;;;;5076403;28;19931;-65
2023/09/11 07:39:12;;;;;;;;;;;23.50;76.30;;;;;;5071528;28;20412;-65
2023/09/11 07:41:37;;;;;;;;;;;23.50;75.60;;;;;;5094198;27;19970;-65
2023/09/11 07:44:03;;;;;;;;;;;23.60;75.70;;;;;;5072960;27;19955;-67
2023/09/11 07:46:29;;;;;;;;;;;23.60;76.00;;;;;;5091290;28;19920;-68
2023/09/11 07:48:54;;;;;;;;;;;23.70;76.00;;;;;;5084598;28;20202;-67
2023/09/11 07:51:20;;;;;;;;;;;23.70;75.80;;;;;;5096721;28;20045;-66
2023/09/11 07:53:45;;;;;;;;;;;23.70;75.80;;;;;;5091517;28;20019;-67
2023/09/11 07:56:11;;;;;;;;;;;23.70;75.80;;;;;;5077619;28;19946;-66
2023/09/11 07:58:37;;;;;;;;;;;23.70;75.80;;;;;;5078468;28;19924;-67
2023/09/11 08:01:03;;;;;;;;;;;23.70;75.80;;;;;;5079947;28;19920;-66
2023/09/11 08:03:29;;;;;;;;;;;23.70;75.70;;;;;;5095145;28;19927;-66
2023/09/11 08:05:54;;;;;;;;;;;23.80;75.80;;;;;;5094287;28;19928;-66
2023/09/11 08:08:20;;;;;;;;;;;23.70;75.70;;;;;;5080350;28;20026;-66
2023/09/11 08:10:45;;;;;;;;;;;23.80;75.80;;;;;;5094111;28;19920;-67
2023/09/11 08:13:11;;;;;;;;;;;23.80;75.80;;;;;;5094766;28;19970;-67
2023/09/11 08:15:36;;;;;;;;;;;23.80;75.90;;;;;;5108506;27;19920;-67
2023/09/11 08:18:02;;;;;;;;;;;23.80;75.80;;;;;;5080500;28;19934;-67
2023/09/11 08:20:28;;;;;;;;;;;23.80;75.70;;;;;;5076221;28;19924;-67
2023/09/11 08:22:53;;;;;;;;;;;23.80;75.80;;;;;;5091967;28;19927;-67
2023/09/11 08:25:19;;;;;;;;;;;23.80;75.80;;;;;;5094116;27;19924;-67
2023/09/11 08:27:44;;;;;;;;;;;23.80;75.70;;;;;;5076017;28;19977;-68
2023/09/11 08:30:10;;;;;;;;;;;23.80;75.70;;;;;;5073758;28;19924;-67
2023/09/11 08:32:37;;;;;;;;;;;23.90;75.70;;;;;;5075619;28;20461;-67
2023/09/11 08:35:02;;;;;;;;;;;23.90;75.70;;;;;;5075350;28;19923;-66
2023/09/11 08:37:29;;;;;;;;;;;23.90;75.60;;;;;;5094936;28;20346;-66
2023/09/11 08:39:55;;;;;;;;;;;23.90;75.50;;;;;;5074839;28;19924;-67
2023/09/11 08:42:22;;;;;;;;;;;23.90;75.50;;;;;;5078145;27;19930;-66
2023/09/11 08:44:49;;;;;;;;;;;23.90;75.40;;;;;;5078296;28;19924;-67
2023/09/11 08:47:15;;;;;;;;;;;23.90;75.40;;;;;;5094833;28;19924;-66
2023/09/11 08:49:42;;;;;;;;;;;23.90;75.30;;;;;;5095314;28;19996;-66
2023/09/11 08:52:09;;;;;;;;;;;24.00;75.30;;;;;;5094162;28;19935;-76
2023/09/11 08:54:37;;;;;;;;;;;24.00;75.30;;;;;;5069488;28;19920;-73
2023/09/11 08:57:03;;;;;;;;;;;24.00;75.40;;;;;;5088748;28;19923;-69
2023/09/11 08:59:29;;;;;;;;;;;24.00;75.20;;;;;;5073543;28;19924;-74
2023/09/11 09:01:55;;;;;;;;;;;24.00;75.20;;;;;;5091876;27;20543;-67
2023/09/11 09:04:21;;;;;;;;;;;24.00;75.10;;;;;;5089562;27;20279;-68
2023/09/11 09:06:48;;;;;;;;;;;24.10;75.20;;;;;;5108100;27;19938;-69
2023/09/11 09:09:13;;;;;;;;;;;24.10;75.20;;;;;;5075704;28;19930;-72
2023/09/11 09:11:40;;;;;;;;;;;24.10;75.20;;;;;;5073829;28;20323;-67
2023/09/11 09:14:06;;;;;;;;;;;24.10;75.10;;;;;;5078028;28;19931;-66
2023/09/11 09:16:32;;;;;;;;;;;24.10;75.10;;;;;;5092626;28;20080;-68
2023/09/11 09:18:57;;;;;;;;;;;24.20;75.10;;;;;;5098216;28;19924;-67
2023/09/11 09:21:25;;;;;;;;;;;24.20;75.00;;;;;;5072749;28;20209;-67
2023/09/11 09:23:51;;;;;;;;;;;24.20;75.00;;;;;;5080853;28;19924;-65
2023/09/11 09:26:17;;;;;;;;;;;24.20;74.90;;;;;;5109741;28;20287;-66
2023/09/11 09:28:43;;;;;;;;;;;24.20;74.80;;;;;;5078182;28;19920;-67
2023/09/11 09:31:12;;;;;;;;;;;24.30;74.80;;;;;;5078074;28;19934;-66
2023/09/11 09:33:38;;;;;;;;;;;24.20;74.70;;;;;;5071539;28;19924;-67
2023/09/11 09:36:03;;;;;;;;;;;24.30;74.70;;;;;;5105533;27;19930;-66
2023/09/11 09:38:31;;;;;;;;;;;24.30;74.60;;;;;;5083331;28;19938;-65
2023/09/11 09:40:56;;;;;;;;;;;24.30;74.60;;;;;;5098278;28;19924;-69
2023/09/11 09:43:22;;;;;;;;;;;24.30;74.50;;;;;;5079736;28;20566;-66
2023/09/11 09:45:47;;;;;;;;;;;24.30;74.40;;;;;;5088636;28;19927;-65
2023/09/11 09:48:14;;;;;;;;;;;24.30;74.40;;;;;;5075819;28;20367;-67
2023/09/11 09:50:58;;;;;;;;;;;24.40;74.30;;;;;;5078891;28;19924;-66
2023/09/11 09:56:07;;;;;;;;;;;24.40;74.30;;;;;;5091130;27;19921;-66
2023/09/11 09:58:35;;;;;;;;;;;24.50;74.30;;;;;;5082785;28;19925;-65
2023/09/11 10:01:09;;;;;;;;;;;24.50;74.10;;;;;;5076282;28;19932;-64
2023/09/11 10:03:37;;;;;;;;;;;24.50;73.80;;;;;;5081721;28;20568;-66
2023/09/11 10:06:05;;;;;;;;;;;24.60;74.40;;;;;;5088070;28;20397;-65
2023/09/11 10:08:31;;;;;;;;;;;24.60;73.50;;;;;;5075274;28;20398;-65
2023/09/11 10:10:56;;;;;;;;;;;24.70;73.50;;;;;;5088147;28;19932;-66
2023/09/11 10:13:24;;;;;;;;;;;24.70;73.60;;;;;;5079875;28;19970;-65
2023/09/11 10:15:50;;;;;;;;;;;24.70;73.20;;;;;;5082459;28;20283;-66
2023/09/11 10:18:16;;;;;;;;;;;24.80;72.90;;;;;;5078478;28;20386;-65
2023/09/11 10:20:41;;;;;;;;;;;24.80;72.90;;;;;;5076505;28;19921;-65
2023/09/11 10:23:07;;;;;;;;;;;24.90;72.80;;;;;;5077403;28;20150;-69
2023/09/11 10:25:36;;;;;;;;;;;24.90;72.80;;;;;;5084669;28;20409;-65
2023/09/11 10:28:04;;;;;;;;;;;24.90;72.10;;;;;;5122204;27;20389;-65
2023/09/11 10:30:32;;;;;;;;;;;25.00;72.00;;;;;;5086510;28;20048;-65
2023/09/11 10:33:00;;;;;;;;;;;25.00;71.90;;;;;;5085557;28;20059;-65
2023/09/11 10:35:28;;;;;;;;;;;25.10;72.00;;;;;;5090320;28;19932;-69
2023/09/11 10:37:56;;;;;;;;;;;25.00;72.00;;;;;;5085638;28;19942;-68
2023/09/11 10:40:24;;;;;;;;;;;25.00;71.60;;;;;;5087720;28;19925;-66
2023/09/11 10:42:49;;;;;;;;;;;25.00;71.70;;;;;;5081933;28;20423;-67
2023/09/11 10:45:32;;;;;;;;;;;25.00;72.00;;;;;;5059155;28;20074;-65
2023/09/11 10:47:57;;;;;;;;;;;25.00;72.20;;;;;;5074018;28;20231;-66
2023/09/11 10:50:28;;;;;;;;;;;25.10;72.70;;;;;;5083012;28;19924;-67
2023/09/11 10:52:55;;;;;;;;;;;25.10;73.00;;;;;;5079234;28;20310;-66
2023/09/11 10:55:22;;;;;;;;;;;25.10;74.00;;;;;;5076052;28;19931;-65
2023/09/11 10:57:47;;;;;;;;;;;25.20;73.60;;;;;;5111934;27;20391;-66
2023/09/11 11:00:13;;;;;;;;;;;25.20;73.60;;;;;;5080550;28;20259;-68
2023/09/11 11:02:39;;;;;;;;;;;25.30;73.30;;;;;;5082382;28;20485;-64
2023/09/11 11:05:05;;;;;;;;;;;25.30;73.30;;;;;;5075902;28;20245;-65
2023/09/11 11:07:30;;;;;;;;;;;25.30;73.10;;;;;;5061264;28;19950;-66
2023/09/11 11:10:00;;;;;;;;;;;25.30;72.90;;;;;;5062085;28;20263;-67
2023/09/11 11:12:33;;;;;;;;;;;25.30;72.50;;;;;;5065440;28;19930;-66
2023/09/11 11:15:19;;;;;;;;;;;25.30;72.50;;;;;;5102642;27;20353;-67
2023/09/11 11:17:44;;;;;;;;;;;25.30;72.10;;;;;;5072612;28;19920;-65
2023/09/11 11:20:11;;;;;;;;;;;25.30;72.00;;;;;;5090962;27;20386;-65
2023/09/11 11:22:40;;;;;;;;;;;25.40;71.90;;;;;;5095063;27;19924;-65
2023/09/11 11:25:10;;;;;;;;;;;25.40;71.80;;;;;;5057003;28;20319;-67
2023/09/11 11:27:37;;;;;;;;;;;25.40;72.00;;;;;;5063545;28;19924;-66
2023/09/11 11:30:04;;;;;;;;;;;25.40;72.10;;;;;;5097072;27;19927;-66
2023/09/11 11:32:30;;;;;;;;;;;25.40;72.90;;;;;;5069705;28;20003;-66
2023/09/11 11:35:00;;;;;;;;;;;25.40;72.10;;;;;;5075493;28;20007;-66
2023/09/11 11:37:25;;;;;;;;;;;25.30;72.00;;;;;;5067983;28;19924;-66
2023/09/11 11:39:52;;;;;;;;;;;25.30;72.00;;;;;;5061998;28;19939;-65
2023/09/11 11:42:18;;;;;;;;;;;25.30;72.10;;;;;;5065317;28;19920;-67
2023/09/11 11:44:44;;;;;;;;;;;25.20;72.10;;;;;;5065765;28;19927;-66
2023/09/11 11:47:09;;;;;;;;;;;25.20;72.20;;;;;;5064312;28;19932;-65
2023/09/11 11:49:36;;;;;;;;;;;25.10;72.20;;;;;;5066624;28;19924;-66
2023/09/11 11:52:03;;;;;;;;;;;25.10;72.30;;;;;;5068884;28;19924;-66
2023/09/11 11:54:29;;;;;;;;;;;25.00;72.80;;;;;;5064282;28;19929;-65
2023/09/11 11:56:56;;;;;;;;;;;25.00;72.40;;;;;;5056541;28;19943;-67
2023/09/11 11:59:22;;;;;;;;;;;25.00;72.50;;;;;;5057872;28;20618;-69
2023/09/11 12:01:48;;;;;;;;;;;24.90;72.50;;;;;;5057770;28;19928;-68
2023/09/11 12:04:13;;;;;;;;;;;24.90;72.60;;;;;;5060749;28;19925;-68
2023/09/11 12:06:39;;;;;;;;;;;24.90;72.70;;;;;;5066963;28;20371;-68
2023/09/11 12:09:04;;;;;;;;;;;24.90;72.70;;;;;;5056156;28;20780;-67
2023/09/11 12:11:31;;;;;;;;;;;24.90;72.70;;;;;;5057427;28;19925;-67
2023/09/11 12:13:57;;;;;;;;;;;24.80;72.80;;;;;;5098079;27;20348;-67
2023/09/11 12:16:22;;;;;;;;;;;24.80;72.80;;;;;;5064007;28;19928;-67
2023/09/11 12:18:48;;;;;;;;;;;24.80;72.80;;;;;;5065465;28;19920;-68
2023/09/11 12:21:13;;;;;;;;;;;24.70;72.80;;;;;;5061236;28;20729;-69
2023/09/11 12:23:39;;;;;;;;;;;24.80;72.80;;;;;;5067072;28;19924;-66
2023/09/11 12:26:04;;;;;;;;;;;24.80;72.90;;;;;;5057865;28;19983;-66
2023/09/11 12:28:30;;;;;;;;;;;24.70;72.80;;;;;;5069043;28;19967;-66
2023/09/11 12:30:56;;;;;;;;;;;24.70;72.90;;;;;;5066890;28;19920;-66
2023/09/11 12:33:22;;;;;;;;;;;24.70;72.90;;;;;;5057152;28;19932;-67
2023/09/11 12:35:51;;;;;;;;;;;24.70;72.90;;;;;;5056263;28;20126;-67
2023/09/11 12:38:17;;;;;;;;;;;24.70;72.90;;;;;;5096342;27;19932;-68
2023/09/11 12:40:43;;;;;;;;;;;24.70;73.60;;;;;;5064966;28;19970;-68
2023/09/11 12:43:09;;;;;;;;;;;24.70;72.90;;;;;;5060222;28;19920;-67
2023/09/11 12:45:35;;;;;;;;;;;24.70;72.90;;;;;;5062485;28;20302;-66
2023/09/11 12:48:02;;;;;;;;;;;24.70;72.90;;;;;;5057218;28;19936;-70
2023/09/11 12:50:28;;;;;;;;;;;24.70;72.90;;;;;;5061128;28;19982;-69
2023/09/11 12:52:53;;;;;;;;;;;24.70;72.90;;;;;;5066787;28;19924;-68
2023/09/11 12:55:20;;;;;;;;;;;24.70;72.90;;;;;;5061863;28;20015;-68
2023/09/11 12:57:45;;;;;;;;;;;24.70;72.90;;;;;;5064047;28;19924;-66
2023/09/11 13:00:12;;;;;;;;;;;24.70;72.90;;;;;;5057398;28;19924;-66
2023/09/11 13:02:38;;;;;;;;;;;24.70;72.90;;;;;;5050707;28;19921;-67
2023/09/11 13:05:06;;;;;;;;;;;24.60;72.90;;;;;;5070313;28;19923;-66
2023/09/11 13:07:31;;;;;;;;;;;24.70;72.90;;;;;;5098379;28;19936;-66
2023/09/11 13:09:57;;;;;;;;;;;24.70;73.00;;;;;;5067100;28;19943;-66
2023/09/11 13:12:22;;;;;;;;;;;24.70;72.90;;;;;;5067644;28;19924;-69
2023/09/11 13:14:49;;;;;;;;;;;24.60;72.90;;;;;;5075076;28;20184;-66
2023/09/11 13:17:15;;;;;;;;;;;24.70;72.90;;;;;;5065370;28;19979;-67
2023/09/11 13:19:40;;;;;;;;;;;24.70;72.90;;;;;;5087383;28;20674;-67
2023/09/11 13:22:05;;;;;;;;;;;24.70;72.90;;;;;;5093850;28;19964;-66
2023/09/11 13:24:31;;;;;;;;;;;24.60;72.80;;;;;;5063454;28;19925;-66
2023/09/11 13:26:56;;;;;;;;;;;24.70;72.90;;;;;;5068611;28;19928;-66
2023/09/11 13:29:22;;;;;;;;;;;24.60;72.80;;;;;;5063241;28;19921;-67
2023/09/11 13:31:47;;;;;;;;;;;24.60;72.80;;;;;;5067024;28;19921;-66
2023/09/11 13:34:13;;;;;;;;;;;24.60;72.80;;;;;;5056332;28;19990;-66
2023/09/11 13:36:39;;;;;;;;;;;24.70;72.80;;;;;;5065538;28;19920;-67
2023/09/11 13:39:04;;;;;;;;;;;24.70;72.80;;;;;;5065680;28;19921;-66
2023/09/11 13:41:30;;;;;;;;;;;24.70;72.80;;;;;;5068642;28;19920;-70
2023/09/11 13:43:55;;;;;;;;;;;24.70;72.80;;;;;;5084846;28;19964;-68
2023/09/11 13:46:21;;;;;;;;;;;24.70;72.80;;;;;;5066752;28;19927;-66
2023/09/11 13:48:46;;;;;;;;;;;24.70;72.40;;;;;;5068675;28;19924;-66
2023/09/11 13:51:12;;;;;;;;;;;24.80;71.80;;;;;;5068509;28;19928;-67
2023/09/11 13:53:38;;;;;;;;;;;24.90;71.50;;;;;;5070837;28;20364;-67
2023/09/11 13:56:04;;;;;;;;;;;25.00;70.90;;;;;;5088694;28;19994;-67
2023/09/11 13:58:29;;;;;;;;;;;25.10;70.50;;;;;;5088393;28;20006;-66
2023/09/11 14:00:55;;;;;;;;;;;25.20;70.50;;;;;;5069134;28;19954;-67
2023/09/11 14:03:20;;;;;;;;;;;25.20;70.00;;;;;;5095431;28;19979;-67
2023/09/11 14:05:45;;;;;;;;;;;25.20;69.90;;;;;;5069627;28;19934;-66
2023/09/11 14:08:11;;;;;;;;;;;25.30;69.40;;;;;;5067695;28;19928;-65
2023/09/11 14:10:37;;;;;;;;;;;25.30;69.20;;;;;;5067947;28;19928;-66
2023/09/11 14:13:02;;;;;;;;;;;25.30;69.00;;;;;;5067876;28;19943;-65
2023/09/11 14:15:28;;;;;;;;;;;25.40;69.10;;;;;;5089999;28;19925;-65